createdAt,value
2022-09-29T00:00:29.006Z,90558.03
2022-09-29T00:03:16.643Z,90553.06
2022-09-29T00:06:04.233Z,90552.31
2022-09-29T00:08:51.789Z,90554.66
2022-09-29T00:11:39.356Z,90554.13
2022-09-29T00:14:26.925Z,90546.28
2022-09-29T00:17:14.481Z,90548.94
2022-09-29T00:20:02.026Z,90538.31
2022-09-29T00:22:49.600Z,90541.69
2022-09-29T00:25:37.182Z,90538.75
2022-09-29T00:28:24.750Z,90527.25
2022-09-29T00:31:12.410Z,90525.59
2022-09-29T00:34:00.045Z,90534.88
2022-09-29T00:36:47.579Z,90520.19
2022-09-29T00:39:35.149Z,90524.22
2022-09-29T00:42:22.694Z,90528.75
2022-09-29T00:45:10.244Z,90520.66
2022-09-29T00:47:57.837Z,90519.19
2022-09-29T00:50:45.396Z,90514.78
2022-09-29T00:53:32.966Z,90517.53
2022-09-29T00:56:20.511Z,90525.19
2022-09-29T00:59:08.165Z,90503.97
2022-09-29T01:01:55.793Z,90514.19
2022-09-29T01:04:43.381Z,90514.00
2022-09-29T01:07:30.929Z,90501.38
2022-09-29T01:10:18.510Z,90511.28
2022-09-29T01:13:06.049Z,90506.28
2022-09-29T01:15:53.679Z,90511.13
2022-09-29T01:18:41.257Z,90504.31
2022-09-29T01:21:28.829Z,90502.22
2022-09-29T01:24:16.396Z,90499.16
2022-09-29T01:27:03.951Z,90500.78
2022-09-29T01:29:51.527Z,90500.00
2022-09-29T01:32:39.083Z,90486.72
2022-09-29T01:35:26.631Z,90489.84
2022-09-29T01:38:14.173Z,90477.00
2022-09-29T01:41:01.871Z,90486.84
2022-09-29T01:43:49.492Z,90487.88
2022-09-29T01:46:37.049Z,90484.38
2022-09-29T01:49:24.601Z,90480.63
2022-09-29T01:52:12.173Z,90475.75
2022-09-29T01:54:59.722Z,90475.88
2022-09-29T01:57:47.282Z,90470.63
2022-09-29T02:00:34.861Z,90474.41
2022-09-29T02:03:22.506Z,90478.03
2022-09-29T02:06:10.045Z,90475.63
2022-09-29T02:08:57.592Z,90477.84
2022-09-29T02:11:45.133Z,90483.72
2022-09-29T02:14:32.718Z,90477.84
2022-09-29T02:17:20.269Z,90479.16
2022-09-29T02:20:07.833Z,90478.09
2022-09-29T02:22:55.381Z,90472.69
2022-09-29T02:25:44.945Z,90471.16
2022-09-29T02:28:32.495Z,90479.88
2022-09-29T02:31:20.163Z,90479.84
2022-09-29T02:34:07.906Z,90483.34
2022-09-29T02:36:55.445Z,90488.63
2022-09-29T02:39:43.086Z,90486.41
2022-09-29T02:42:30.626Z,90483.75
2022-09-29T02:45:18.275Z,90482.78
2022-09-29T02:48:07.787Z,90488.53
2022-09-29T02:50:55.338Z,90495.78
2022-09-29T02:53:42.877Z,90493.38
2022-09-29T02:56:30.430Z,90481.88
2022-09-29T02:59:17.968Z,90470.88
2022-09-29T03:02:05.499Z,90471.28
2022-09-29T03:04:53.041Z,90464.94
2022-09-29T03:07:40.576Z,90464.72
2022-09-29T03:10:30.368Z,90469.50
2022-09-29T03:13:18.117Z,90471.03
2022-09-29T03:16:05.668Z,90472.47
2022-09-29T03:18:53.275Z,90477.50
2022-09-29T03:21:40.822Z,90476.97
2022-09-29T03:24:28.349Z,90476.38
2022-09-29T03:27:15.997Z,90476.59
2022-09-29T03:30:03.529Z,90469.63
2022-09-29T03:32:51.090Z,90475.34
2022-09-29T03:35:42.436Z,90467.56
2022-09-29T03:38:31.853Z,90478.63
2022-09-29T03:41:19.379Z,90481.66
2022-09-29T03:44:06.931Z,90479.19
2022-09-29T03:46:54.476Z,90479.13
2022-09-29T03:49:42.026Z,90478.28
2022-09-29T03:52:29.605Z,90475.78
2022-09-29T03:55:17.143Z,90470.31
2022-09-29T03:58:04.713Z,90476.09
2022-09-29T04:00:52.278Z,90475.28
2022-09-29T04:03:39.919Z,90468.41
2022-09-29T04:06:27.469Z,90468.31
2022-09-29T04:09:15.026Z,90466.19
2022-09-29T04:12:02.590Z,90469.56
2022-09-29T04:14:50.142Z,90482.66
2022-09-29T04:17:37.693Z,90470.41
2022-09-29T04:20:25.225Z,90463.84
2022-09-29T04:23:13.304Z,90466.59
2022-09-29T04:26:00.834Z,90463.25
2022-09-29T04:28:48.379Z,90466.25
2022-09-29T04:31:36.143Z,90467.59
2022-09-29T04:34:23.704Z,90462.81
2022-09-29T04:37:11.254Z,90460.31
2022-09-29T04:39:58.780Z,90461.19
2022-09-29T04:42:46.339Z,90449.34
2022-09-29T04:45:33.971Z,90454.88
2022-09-29T04:48:21.561Z,90454.13
2022-09-29T04:51:09.084Z,90461.31
2022-09-29T04:53:56.727Z,90462.50
2022-09-29T04:56:44.265Z,90466.78
2022-09-29T04:59:31.824Z,90468.50
2022-09-29T05:02:19.522Z,90470.03
2022-09-29T05:05:07.179Z,90479.53
2022-09-29T05:07:54.743Z,90479.22
2022-09-29T05:10:44.434Z,90475.69
2022-09-29T05:13:31.982Z,90480.63
2022-09-29T05:16:19.592Z,90478.88
2022-09-29T05:19:07.167Z,90482.44
2022-09-29T05:21:54.761Z,90488.31
2022-09-29T05:24:42.299Z,90484.84
2022-09-29T05:27:31.856Z,90476.72
2022-09-29T05:30:19.396Z,90483.41
2022-09-29T05:33:07.050Z,90489.47
2022-09-29T05:35:54.598Z,90479.38
2022-09-29T05:38:42.138Z,90480.72
2022-09-29T05:41:29.664Z,90484.84
2022-09-29T05:44:17.264Z,90481.94
2022-09-29T05:47:04.794Z,90489.47
2022-09-29T05:49:52.365Z,90482.56
2022-09-29T05:52:39.908Z,90491.00
2022-09-29T05:55:27.478Z,90499.78
2022-09-29T05:58:15.040Z,90488.53
2022-09-29T06:01:02.653Z,90493.19
2022-09-29T06:03:50.205Z,90494.22
2022-09-29T06:06:37.764Z,90488.69
2022-09-29T06:09:25.295Z,90494.59
2022-09-29T06:12:12.845Z,90502.91
2022-09-29T06:15:00.379Z,90504.38
2022-09-29T06:17:48.040Z,90506.19
2022-09-29T06:20:37.567Z,90511.97
2022-09-29T06:23:25.129Z,90509.50
2022-09-29T06:26:12.687Z,90520.91
2022-09-29T06:29:00.259Z,90514.75
2022-09-29T06:31:47.847Z,90506.34
2022-09-29T06:34:35.393Z,90513.84
2022-09-29T06:37:23.237Z,90514.91
2022-09-29T06:40:11.371Z,90514.56
2022-09-29T06:42:59.178Z,90518.69
2022-09-29T06:45:46.741Z,90532.97
2022-09-29T06:48:34.393Z,90534.19
2022-09-29T06:51:22.170Z,90534.19
2022-09-29T06:54:12.123Z,90544.13
2022-09-29T06:57:00.133Z,90547.31
2022-09-29T06:59:47.710Z,90546.91
2022-09-29T07:02:35.297Z,90557.06
2022-09-29T07:05:22.886Z,90559.72
2022-09-29T07:08:10.408Z,90555.56
2022-09-29T07:10:57.998Z,90559.09
2022-09-29T07:13:45.547Z,90568.72
2022-09-29T07:16:33.175Z,90568.66
2022-09-29T07:19:20.821Z,90582.50
2022-09-29T07:22:08.475Z,90599.19
2022-09-29T07:24:56.015Z,90594.22
2022-09-29T07:27:43.647Z,90596.53
2022-09-29T07:30:39.093Z,90595.41
2022-09-29T07:33:37.800Z,90601.81
2022-09-29T07:36:26.589Z,90605.59
2022-09-29T07:39:14.219Z,90610.09
2022-09-29T07:42:02.435Z,90610.03
2022-09-29T07:44:52.605Z,90607.66
2022-09-29T07:47:40.299Z,90605.13
2022-09-29T07:50:27.824Z,90609.78
2022-09-29T07:53:15.379Z,90614.06
2022-09-29T07:56:02.909Z,90622.16
2022-09-29T07:58:50.453Z,90618.50
2022-09-29T08:01:37.986Z,90619.50
2022-09-29T08:04:25.523Z,90626.09
2022-09-29T08:07:13.052Z,90624.66
2022-09-29T08:10:12.425Z,90630.81
2022-09-29T08:13:02.750Z,90636.94
2022-09-29T08:15:50.307Z,90636.09
2022-09-29T08:18:37.831Z,90639.69
2022-09-29T08:21:25.390Z,90637.97
2022-09-29T08:24:13.319Z,90644.69
2022-09-29T08:27:11.181Z,90656.59
2022-09-29T08:30:01.476Z,90660.06
2022-09-29T08:32:49.037Z,90647.88
2022-09-29T08:35:36.574Z,90653.38
2022-09-29T08:38:24.203Z,90655.38
2022-09-29T08:41:13.725Z,90654.03
2022-09-29T08:44:01.318Z,90649.06
2022-09-29T08:46:58.111Z,90653.53
2022-09-29T08:49:50.880Z,90661.28
2022-09-29T08:52:50.061Z,90656.56
2022-09-29T08:55:38.404Z,90661.56
2022-09-29T08:58:25.922Z,90649.47
2022-09-29T09:01:13.508Z,90669.53
2022-09-29T09:04:01.079Z,90662.38
2022-09-29T09:06:48.641Z,90661.81
2022-09-29T09:09:36.174Z,90665.13
2022-09-29T09:12:23.734Z,90668.38
2022-09-29T09:15:11.252Z,90662.44
2022-09-29T09:17:58.917Z,90660.44
2022-09-29T09:20:48.440Z,90663.66
2022-09-29T09:23:36.006Z,90664.78
2022-09-29T09:26:25.531Z,90664.47
2022-09-29T09:29:13.078Z,90660.22
2022-09-29T09:32:00.612Z,90657.78
2022-09-29T09:34:48.323Z,90663.91
2022-09-29T09:37:35.913Z,90657.25
2022-09-29T09:40:23.456Z,90662.00
2022-09-29T09:43:11.004Z,90656.00
2022-09-29T09:45:58.672Z,90657.16
2022-09-29T09:48:46.254Z,90664.81
2022-09-29T09:51:33.946Z,90663.66
2022-09-29T09:54:21.538Z,90656.38
2022-09-29T09:57:09.144Z,90654.03
2022-09-29T09:59:58.665Z,90653.69
2022-09-29T10:02:47.281Z,90659.28
2022-09-29T10:05:34.814Z,90667.25
2022-09-29T10:08:22.373Z,90658.56
2022-09-29T10:11:09.906Z,90672.91
2022-09-29T10:13:57.469Z,90666.00
2022-09-29T10:16:45.075Z,90671.94
2022-09-29T10:19:32.773Z,90669.13
2022-09-29T10:25:12.722Z,90658.75
2022-09-29T10:28:00.266Z,90654.19
2022-09-29T10:30:47.924Z,90654.91
2022-09-29T10:33:35.479Z,90656.31
2022-09-29T10:36:23.030Z,90651.34
2022-09-29T10:39:10.553Z,90660.06
2022-09-29T10:41:58.116Z,90656.66
2022-09-29T10:44:45.715Z,90665.22
2022-09-29T10:47:33.267Z,90667.03
2022-09-29T10:50:20.812Z,90665.16
2022-09-29T10:53:10.172Z,90662.03
2022-09-29T10:56:00.159Z,90665.09
2022-09-29T10:59:06.237Z,90665.56
2022-09-29T11:01:53.930Z,90662.63
2022-09-29T11:04:41.484Z,90662.81
2022-09-29T11:07:29.016Z,90664.41
2022-09-29T11:10:16.571Z,90677.19
2022-09-29T11:13:04.221Z,90665.31
2022-09-29T11:15:51.793Z,90669.97
2022-09-29T11:18:39.363Z,90678.81
2022-09-29T11:21:26.910Z,90680.69
2022-09-29T11:24:14.443Z,90676.13
2022-09-29T11:27:02.012Z,90680.69
2022-09-29T11:29:49.546Z,90676.53
2022-09-29T11:32:37.110Z,90669.25
2022-09-29T11:35:24.651Z,90674.81
2022-09-29T11:38:12.179Z,90679.88
2022-09-29T11:40:59.729Z,90675.50
2022-09-29T11:43:47.271Z,90676.16
2022-09-29T11:46:34.838Z,90678.41
2022-09-29T11:49:22.404Z,90688.41
2022-09-29T11:52:10.046Z,90684.16
2022-09-29T11:54:57.611Z,90677.00
2022-09-29T11:57:45.195Z,90674.91
2022-09-29T12:00:32.750Z,90675.66
2022-09-29T12:03:20.345Z,90680.91
2022-09-29T12:06:08.064Z,90678.09
2022-09-29T12:08:55.648Z,90673.72
2022-09-29T12:14:50.700Z,90675.19
2022-09-29T12:17:38.267Z,90682.97
2022-09-29T12:20:25.801Z,90666.63
2022-09-29T12:23:13.353Z,90677.53
2022-09-29T12:26:02.852Z,90675.00
2022-09-29T12:28:50.394Z,90670.41
2022-09-29T12:31:37.939Z,90668.44
2022-09-29T12:34:25.490Z,90678.63
2022-09-29T12:37:13.029Z,90682.56
2022-09-29T12:40:00.608Z,90680.09
2022-09-29T12:42:48.161Z,90689.53
2022-09-29T12:45:35.704Z,90685.66
2022-09-29T12:48:23.232Z,90690.38
2022-09-29T12:51:10.795Z,90685.44
2022-09-29T12:53:58.389Z,90697.03
2022-09-29T12:56:45.950Z,90690.34
2022-09-29T12:59:33.503Z,90690.25
2022-09-29T13:02:21.076Z,90691.31
2022-09-29T13:05:08.670Z,90697.81
2022-09-29T13:07:56.213Z,90690.84
2022-09-29T13:10:43.770Z,90689.00
2022-09-29T13:13:31.290Z,90692.81
2022-09-29T13:16:19.007Z,90693.13
2022-09-29T13:19:20.342Z,90694.53
2022-09-29T13:22:08.461Z,90700.75
2022-09-29T13:24:55.991Z,90697.31
2022-09-29T13:27:43.528Z,90694.09
2022-09-29T13:30:31.109Z,90692.53
2022-09-29T13:33:18.720Z,90688.81
2022-09-29T13:36:06.245Z,90692.13
2022-09-29T13:38:53.805Z,90682.31
2022-09-29T13:41:41.401Z,90686.25
2022-09-29T13:44:28.991Z,90698.44
2022-09-29T13:47:16.519Z,90703.47
2022-09-29T13:50:04.077Z,90704.16
2022-09-29T13:52:51.626Z,90697.91
2022-09-29T13:55:39.166Z,90696.75
2022-09-29T13:58:26.693Z,90692.34
2022-09-29T14:01:14.255Z,90708.59
2022-09-29T14:04:01.817Z,90702.66
2022-09-29T14:06:49.395Z,90701.91
2022-09-29T14:09:37.001Z,90709.03
2022-09-29T14:12:24.639Z,90712.81
2022-09-29T14:15:12.179Z,90707.66
2022-09-29T14:17:59.737Z,90721.56
2022-09-29T14:20:47.256Z,90715.09
2022-09-29T14:23:34.887Z,90720.97
2022-09-29T14:26:24.392Z,90727.94
2022-09-29T14:29:11.962Z,90723.44
2022-09-29T14:31:59.509Z,90725.91
2022-09-29T14:34:47.054Z,90724.34
2022-09-29T14:37:34.590Z,90730.59
2022-09-29T14:40:22.147Z,90724.94
2022-09-29T14:43:09.683Z,90728.09
2022-09-29T14:45:57.283Z,90727.34
2022-09-29T14:48:44.839Z,90728.75
2022-09-29T14:51:32.400Z,90729.38
2022-09-29T14:54:19.956Z,90742.47
2022-09-29T14:57:07.526Z,90740.53
2022-09-29T14:59:55.062Z,90741.41
2022-09-29T15:02:42.682Z,90739.38
2022-09-29T15:05:31.247Z,90736.97
2022-09-29T15:08:18.917Z,90748.31
2022-09-29T15:11:06.455Z,90736.16
2022-09-29T15:13:53.972Z,90737.25
2022-09-29T15:16:41.500Z,90739.50
2022-09-29T15:19:29.025Z,90738.00
2022-09-29T15:22:16.598Z,90746.13
2022-09-29T15:25:08.276Z,90744.25
2022-09-29T15:27:57.850Z,90744.19
2022-09-29T15:30:45.428Z,90743.50
2022-09-29T15:33:33.013Z,90742.81
2022-09-29T15:36:20.668Z,90736.75
2022-09-29T15:39:10.220Z,90740.34
2022-09-29T15:41:57.755Z,90746.53
2022-09-29T15:44:45.314Z,90750.25
2022-09-29T15:47:32.851Z,90754.78
2022-09-29T15:50:20.400Z,90760.44
2022-09-29T15:53:07.928Z,90764.41
2022-09-29T15:55:55.499Z,90763.66
2022-09-29T15:58:43.037Z,90769.50
2022-09-29T16:01:30.640Z,90770.25
2022-09-29T16:04:18.176Z,90780.88
2022-09-29T16:07:05.753Z,90781.53
2022-09-29T16:09:53.278Z,90778.50
2022-09-29T16:12:40.847Z,90792.00
2022-09-29T16:15:28.553Z,90799.66
2022-09-29T16:18:16.252Z,90795.78
2022-09-29T16:21:03.819Z,90794.91
2022-09-29T16:23:51.344Z,90800.41
2022-09-29T16:26:38.901Z,90800.00
2022-09-29T16:29:26.440Z,90784.34
2022-09-29T16:32:13.963Z,90798.47
2022-09-29T16:35:01.519Z,90806.34
2022-09-29T16:37:49.061Z,90811.00
2022-09-29T16:40:36.618Z,90813.81
2022-09-29T16:43:24.181Z,90818.53
2022-09-29T16:46:11.781Z,90814.69
2022-09-29T16:48:59.356Z,90812.56
2022-09-29T16:51:46.886Z,90821.91
2022-09-29T16:54:34.542Z,90825.31
2022-09-29T16:57:22.068Z,90829.31
2022-09-29T17:00:09.622Z,90829.09
2022-09-29T17:02:57.199Z,90821.94
2022-09-29T17:05:44.777Z,90831.28
2022-09-29T17:08:32.299Z,90826.50
2022-09-29T17:11:19.863Z,90834.69
2022-09-29T17:14:07.401Z,90836.47
2022-09-29T17:16:54.953Z,90843.09
2022-09-29T17:19:42.505Z,90841.88
2022-09-29T17:22:30.057Z,90848.81
2022-09-29T17:25:17.581Z,90855.47
2022-09-29T17:28:05.137Z,90856.59
2022-09-29T17:30:52.757Z,90862.88
2022-09-29T17:33:40.356Z,90868.00
2022-09-29T17:36:28.016Z,90870.69
2022-09-29T17:39:15.544Z,90873.59
2022-09-29T17:42:03.100Z,90871.16
2022-09-29T17:44:50.638Z,90871.84
2022-09-29T17:47:38.249Z,90874.38
2022-09-29T17:50:25.810Z,90879.38
2022-09-29T17:53:13.358Z,90872.44
2022-09-29T17:56:00.879Z,90882.66
2022-09-29T17:58:48.509Z,90883.03
2022-09-29T18:01:36.071Z,90881.22
2022-09-29T18:04:23.635Z,90894.31
2022-09-29T18:07:11.166Z,90885.97
2022-09-29T18:09:58.726Z,90891.81
2022-09-29T18:12:46.302Z,90893.09
2022-09-29T18:15:33.929Z,90888.84
2022-09-29T18:18:21.535Z,90894.72
2022-09-29T18:21:11.090Z,90895.47
2022-09-29T18:23:58.665Z,90889.06
2022-09-29T18:26:46.205Z,90896.69
2022-09-29T18:29:33.735Z,90893.78
2022-09-29T18:32:21.265Z,90895.34
2022-09-29T18:35:08.811Z,90891.56
2022-09-29T18:37:56.339Z,90894.06
2022-09-29T18:40:43.884Z,90896.06
2022-09-29T18:43:31.427Z,90890.97
2022-09-29T18:46:19.047Z,90893.97
2022-09-29T18:49:06.754Z,90902.66
2022-09-29T18:51:54.293Z,90905.78
2022-09-29T18:54:41.827Z,90900.69
2022-09-29T18:57:29.365Z,90917.69
2022-09-29T19:00:17.022Z,90919.81
2022-09-29T19:03:04.603Z,90932.84
2022-09-29T19:05:52.284Z,90933.72
2022-09-29T19:08:39.882Z,90936.59
2022-09-29T19:11:27.425Z,90924.31
2022-09-29T19:14:14.996Z,90920.81
2022-09-29T19:17:02.546Z,90931.88
2022-09-29T19:19:50.093Z,90929.91
2022-09-29T19:22:38.596Z,90919.44
2022-09-29T19:25:26.241Z,90934.78
2022-09-29T19:28:13.775Z,90929.84
2022-09-29T19:31:01.335Z,90929.63
2022-09-29T19:33:48.908Z,90937.47
2022-09-29T19:36:36.433Z,90944.59
2022-09-29T19:39:23.986Z,90945.09
2022-09-29T19:42:11.517Z,90949.25
2022-09-29T19:44:59.052Z,90959.00
2022-09-29T19:47:46.580Z,90952.22
2022-09-29T19:50:36.204Z,90958.59
2022-09-29T19:53:23.754Z,90953.53
2022-09-29T19:56:11.341Z,90959.69
2022-09-29T19:58:58.928Z,90958.41
2022-09-29T20:01:46.521Z,90965.22
2022-09-29T20:04:34.081Z,90972.59
2022-09-29T20:07:21.664Z,90975.41
2022-09-29T20:10:09.212Z,90975.84
2022-09-29T20:12:56.780Z,90990.84
2022-09-29T20:15:44.330Z,90990.94
2022-09-29T20:18:31.914Z,90992.94
2022-09-29T20:21:19.462Z,90991.88
2022-09-29T20:24:07.026Z,90995.91
2022-09-29T20:26:54.571Z,91000.19
2022-09-29T20:29:42.120Z,90996.28
2022-09-29T20:32:29.660Z,91001.72
2022-09-29T20:35:17.210Z,91003.78
2022-09-29T20:38:04.759Z,91003.50
2022-09-29T20:40:52.313Z,91015.16
2022-09-29T20:43:39.852Z,91004.16
2022-09-29T20:46:28.083Z,91010.84
2022-09-29T20:49:15.729Z,91005.16
2022-09-29T20:52:03.286Z,90998.19
2022-09-29T20:54:50.827Z,91006.94
2022-09-29T20:57:40.779Z,91008.81
2022-09-29T21:00:31.567Z,91024.16
2022-09-29T21:03:19.143Z,91018.88
2022-09-29T21:06:06.673Z,91007.78
2022-09-29T21:08:54.238Z,91011.28
2022-09-29T21:11:41.761Z,91013.78
2022-09-29T21:14:29.327Z,91021.91
2022-09-29T21:17:16.883Z,91019.03
2022-09-29T21:20:04.433Z,91023.59
2022-09-29T21:22:51.968Z,91023.34
2022-09-29T21:25:39.509Z,91027.88
2022-09-29T21:28:27.035Z,91028.69
2022-09-29T21:31:14.648Z,91028.31
2022-09-29T21:34:02.229Z,91029.44
2022-09-29T21:36:49.747Z,91029.03
2022-09-29T21:39:37.303Z,91038.09
2022-09-29T21:42:24.843Z,91033.97
2022-09-29T21:45:12.401Z,91041.81
2022-09-29T21:47:59.983Z,91035.06
2022-09-29T21:50:47.536Z,91038.81
2022-09-29T21:53:35.059Z,91042.56
2022-09-29T21:56:22.614Z,91036.94
2022-09-29T21:59:10.172Z,91042.88
2022-09-29T22:01:57.784Z,91046.59
2022-09-29T22:04:45.379Z,91039.78
2022-09-29T22:07:32.894Z,91052.66
2022-09-29T22:10:20.436Z,91041.44
2022-09-29T22:13:07.978Z,91044.81
2022-09-29T22:15:55.550Z,91046.31
2022-09-29T22:18:43.131Z,91053.44
2022-09-29T22:21:30.647Z,91054.56
2022-09-29T22:24:18.197Z,91054.94
2022-09-29T22:27:05.740Z,91054.22
2022-09-29T22:29:53.291Z,91061.31
2022-09-29T22:32:40.815Z,91054.19
2022-09-29T22:35:28.343Z,91050.06
2022-09-29T22:38:15.863Z,91047.06
2022-09-29T22:41:03.514Z,91056.81
2022-09-29T22:43:51.037Z,91055.34
2022-09-29T22:46:40.654Z,91051.56
2022-09-29T22:49:28.260Z,91059.81
2022-09-29T22:52:15.814Z,91053.81
2022-09-29T22:55:03.320Z,91050.81
2022-09-29T22:57:50.864Z,91052.72
2022-09-29T23:00:38.399Z,91062.81
2022-09-29T23:03:25.940Z,91060.56
2022-09-29T23:06:13.460Z,91065.44
2022-09-29T23:09:01.085Z,91057.56
2022-09-29T23:11:48.634Z,91059.09
2022-09-29T23:14:36.189Z,91060.22
2022-09-29T23:17:23.704Z,91060.19
2022-09-29T23:20:11.254Z,91068.06
2022-09-29T23:22:58.763Z,91075.59
2022-09-29T23:25:46.418Z,91079.31
2022-09-29T23:28:35.931Z,91077.06
2022-09-29T23:31:23.559Z,91066.91
2022-09-29T23:34:11.175Z,91064.22
2022-09-29T23:36:58.720Z,91055.75
2022-09-29T23:39:46.245Z,91056.31
2022-09-29T23:42:33.830Z,91059.53
2022-09-29T23:45:21.366Z,91053.09
2022-09-29T23:48:08.925Z,91058.34
2022-09-29T23:50:56.466Z,91065.72
2022-09-29T23:53:44.023Z,91068.22
2022-09-29T23:56:31.561Z,91064.84
2022-09-29T23:59:21.115Z,91058.75
